Angoon, Alaska
Current Conditions -  °F | °C
As of 3:56 PM on Tuesday 27 Jan 2015 (Local Time) from PAGN Reporting Station
Overcast Overcast  
Wind Chill: 30°   Ceiling: 4700
Heat Index: 34°   Visibility: 10mi
Dew Point: 30°   Wind: 5mph
Humidity: 85%   Direction: 60°ENE
Pressure: 30.05"   Gusts: NA
Location:  57.5°N, 134.59°W
Report Text: PAGN 280056Z AUTO 06004KT 10SM OVC047 01/M01 A3005 RMK AO2 TSNO T00111011 SLP179 $
Loading
Personal Weather Stations






























Interactive Weather Map New forecast layout! Learn more

10-Day Weather Forecast

Advertisements
Track Severe Weather on mobile